ZEG111 CZVL-CYBW
Flight info
| Callsign | ZEG111 |
|---|---|
| Flight time | 0h 53m |
| Altitude | 7000 |
| Route | ANTID DCT ADVOX |
| Aircraft | DA62/L-SDFGRY/C |
Departure
| Time | 2026-05-06 21:29 |
|---|---|
| Airport | Edmonton / Villeneuve Airport (CZVL) |
Arrival
| Time | 2026-05-06 22:22 |
|---|---|
| Airport | Calgary / Springbank Airport (CYBW) |
| Time | Latitude | Longitude | Altitude | Speed | Heading |
|---|---|---|---|---|---|
| 2026-05-06 21:10 | 53.67133 | -113.85920 | 2246 ft | 0 kts | 312° |
| 2026-05-06 21:11 | 53.67142 | -113.85867 | 2245 ft | 8 kts | 139° |
| 2026-05-06 21:12 | 53.67130 | -113.85883 | 2245 ft | 0 kts | 311° |
| 2026-05-06 21:22 | 53.67142 | -113.85894 | 2245 ft | 9 kts | 342° |
| 2026-05-06 21:22 | 53.67176 | -113.85958 | 2245 ft | 7 kts | 282° |
| 2026-05-06 21:22 | 53.67189 | -113.86087 | 2247 ft | 15 kts | 281° |
| 2026-05-06 21:23 | 53.67221 | -113.86225 | 2250 ft | 12 kts | 333° |
| 2026-05-06 21:23 | 53.67280 | -113.86227 | 2247 ft | 0 kts | 10° |
| 2026-05-06 21:27 | 53.67297 | -113.86221 | 2247 ft | 11 kts | 12° |
| 2026-05-06 21:27 | 53.67376 | -113.86187 | 2244 ft | 7 kts | 63° |
| 2026-05-06 21:28 | 53.67378 | -113.86155 | 2244 ft | 0 kts | 96° |
| 2026-05-06 21:28 | 53.67375 | -113.86128 | 2244 ft | 17 kts | 98° |
| 2026-05-06 21:28 | 53.67317 | -113.85578 | 2241 ft | 75 kts | 103° |
| 2026-05-06 21:28 | 53.67201 | -113.84571 | 2401 ft | 98 kts | 103° |
| 2026-05-06 21:29 | 53.67067 | -113.83353 | 2501 ft | 114 kts | 99° |
| 2026-05-06 21:29 | 53.66946 | -113.82030 | 2662 ft | 116 kts | 102° |
| 2026-05-06 21:29 | 53.66855 | -113.80607 | 2845 ft | 129 kts | 99° |
| 2026-05-06 21:29 | 53.66745 | -113.79052 | 3084 ft | 138 kts | 101° |
| 2026-05-06 21:30 | 53.66555 | -113.77506 | 3415 ft | 132 kts | 128° |
| 2026-05-06 21:30 | 53.65777 | -113.76880 | 3797 ft | 130 kts | 181° |
| 2026-05-06 21:30 | 53.64876 | -113.76810 | 4089 ft | 132 kts | 154° |
| 2026-05-06 21:30 | 53.64105 | -113.75977 | 4491 ft | 133 kts | 168° |
| 2026-05-06 21:31 | 53.63175 | -113.76065 | 4980 ft | 135 kts | 185° |
| 2026-05-06 21:31 | 53.62227 | -113.76165 | 5337 ft | 139 kts | 185° |
| 2026-05-06 21:31 | 53.61243 | -113.76211 | 5890 ft | 144 kts | 185° |
| 2026-05-06 21:31 | 53.60221 | -113.76226 | 6331 ft | 150 kts | 188° |
| 2026-05-06 21:32 | 53.59163 | -113.76300 | 6623 ft | 154 kts | 188° |
| 2026-05-06 21:32 | 53.56941 | -113.76491 | 7009 ft | 173 kts | 188° |
| 2026-05-06 21:32 | 53.55712 | -113.76598 | 6983 ft | 181 kts | 186° |
| 2026-05-06 21:33 | 53.54537 | -113.77108 | 7015 ft | 173 kts | 219° |
| 2026-05-06 21:33 | 53.53558 | -113.78308 | 7021 ft | 178 kts | 216° |
| 2026-05-06 21:33 | 53.52444 | -113.79221 | 7032 ft | 178 kts | 210° |
| 2026-05-06 21:33 | 53.51288 | -113.80078 | 7015 ft | 183 kts | 208° |
| 2026-05-06 21:34 | 53.50128 | -113.80904 | 7020 ft | 179 kts | 208° |
| 2026-05-06 21:34 | 53.48985 | -113.81742 | 7004 ft | 179 kts | 208° |
| 2026-05-06 21:34 | 53.47858 | -113.82566 | 7003 ft | 175 kts | 208° |
| 2026-05-06 21:34 | 53.46739 | -113.83392 | 6981 ft | 177 kts | 208° |
| 2026-05-06 21:35 | 53.45620 | -113.84221 | 7002 ft | 176 kts | 209° |
| 2026-05-06 21:35 | 53.44499 | -113.85024 | 7033 ft | 173 kts | 209° |
| 2026-05-06 21:35 | 53.43373 | -113.85849 | 7009 ft | 175 kts | 209° |
| 2026-05-06 21:35 | 53.42255 | -113.86679 | 7014 ft | 176 kts | 209° |
| 2026-05-06 21:36 | 53.41134 | -113.87496 | 7029 ft | 176 kts | 208° |
| 2026-05-06 21:36 | 53.40012 | -113.88294 | 7029 ft | 175 kts | 208° |
| 2026-05-06 21:36 | 53.38881 | -113.89140 | 7031 ft | 177 kts | 208° |
| 2026-05-06 21:36 | 53.37783 | -113.89923 | 7277 ft | 162 kts | 208° |
| 2026-05-06 21:37 | 53.36806 | -113.90629 | 7619 ft | 147 kts | 210° |
| 2026-05-06 21:37 | 53.35902 | -113.91298 | 7971 ft | 142 kts | 211° |
| 2026-05-06 21:37 | 53.34905 | -113.92037 | 8009 ft | 168 kts | 209° |
| 2026-05-06 21:37 | 53.33799 | -113.92851 | 8018 ft | 177 kts | 210° |
| 2026-05-06 21:38 | 53.32633 | -113.93694 | 8023 ft | 190 kts | 209° |
| 2026-05-06 21:38 | 53.31395 | -113.94587 | 8002 ft | 196 kts | 210° |
| 2026-05-06 21:38 | 53.30150 | -113.95497 | 8018 ft | 195 kts | 209° |
| 2026-05-06 21:38 | 53.28879 | -113.96408 | 8012 ft | 202 kts | 210° |
| 2026-05-06 21:39 | 53.27602 | -113.97334 | 8006 ft | 198 kts | 209° |
| 2026-05-06 21:39 | 53.26339 | -113.98255 | 8009 ft | 200 kts | 209° |
| 2026-05-06 21:39 | 53.25064 | -113.99183 | 7996 ft | 200 kts | 209° |
| 2026-05-06 21:39 | 53.23794 | -114.00081 | 7995 ft | 196 kts | 209° |
| 2026-05-06 21:40 | 53.22524 | -114.01003 | 8016 ft | 203 kts | 209° |
| 2026-05-06 21:40 | 53.21241 | -114.01949 | 8003 ft | 200 kts | 209° |
| 2026-05-06 21:40 | 53.19980 | -114.02841 | 8016 ft | 192 kts | 208° |
| 2026-05-06 21:40 | 53.18724 | -114.03750 | 7995 ft | 200 kts | 210° |
| 2026-05-06 21:41 | 53.17460 | -114.04680 | 8016 ft | 202 kts | 210° |
| 2026-05-06 21:41 | 53.16126 | -114.05649 | 7990 ft | 207 kts | 208° |
| 2026-05-06 21:41 | 53.14822 | -114.06562 | 7999 ft | 208 kts | 208° |
| 2026-05-06 21:41 | 53.13496 | -114.07522 | 7991 ft | 206 kts | 209° |
| 2026-05-06 21:42 | 53.12170 | -114.08485 | 7992 ft | 205 kts | 208° |
| 2026-05-06 21:42 | 53.10859 | -114.09421 | 8004 ft | 207 kts | 209° |
| 2026-05-06 21:42 | 53.09538 | -114.10373 | 7999 ft | 208 kts | 207° |
| 2026-05-06 21:42 | 53.08206 | -114.11334 | 8007 ft | 211 kts | 210° |
| 2026-05-06 21:43 | 53.06867 | -114.12291 | 7987 ft | 208 kts | 208° |
| 2026-05-06 21:43 | 53.05545 | -114.13235 | 7985 ft | 205 kts | 208° |
| 2026-05-06 21:43 | 53.04244 | -114.14171 | 7984 ft | 203 kts | 209° |
| 2026-05-06 21:43 | 53.02948 | -114.15100 | 7983 ft | 202 kts | 209° |
| 2026-05-06 21:44 | 53.01656 | -114.16025 | 7996 ft | 203 kts | 209° |
| 2026-05-06 21:44 | 53.00361 | -114.16954 | 7987 ft | 202 kts | 209° |
| 2026-05-06 21:44 | 52.99053 | -114.17881 | 7980 ft | 204 kts | 208° |
| 2026-05-06 21:44 | 52.97755 | -114.18819 | 7991 ft | 204 kts | 208° |
| 2026-05-06 21:45 | 52.96451 | -114.19740 | 8009 ft | 205 kts | 209° |
| 2026-05-06 21:45 | 52.95139 | -114.20691 | 7989 ft | 206 kts | 208° |
| 2026-05-06 21:45 | 52.93825 | -114.21609 | 7980 ft | 207 kts | 208° |
| 2026-05-06 21:45 | 52.92508 | -114.22555 | 7979 ft | 206 kts | 209° |
| 2026-05-06 21:46 | 52.91194 | -114.23493 | 7988 ft | 206 kts | 209° |
| 2026-05-06 21:46 | 52.89879 | -114.24429 | 7986 ft | 206 kts | 208° |
| 2026-05-06 21:46 | 52.88552 | -114.25360 | 7975 ft | 207 kts | 206° |
| 2026-05-06 21:46 | 52.87131 | -114.25840 | 7980 ft | 210 kts | 193° |
| 2026-05-06 21:47 | 52.85694 | -114.26205 | 7974 ft | 209 kts | 194° |
| 2026-05-06 21:47 | 52.84259 | -114.26592 | 7984 ft | 210 kts | 193° |
| 2026-05-06 21:47 | 52.82813 | -114.26976 | 7973 ft | 210 kts | 194° |
| 2026-05-06 21:47 | 52.81354 | -114.27359 | 7973 ft | 210 kts | 193° |
| 2026-05-06 21:48 | 52.79906 | -114.27737 | 7974 ft | 209 kts | 193° |
| 2026-05-06 21:48 | 52.78469 | -114.28104 | 7972 ft | 209 kts | 194° |
| 2026-05-06 21:48 | 52.77035 | -114.28478 | 7980 ft | 211 kts | 193° |
| 2026-05-06 21:48 | 52.75581 | -114.28862 | 7978 ft | 211 kts | 194° |
| 2026-05-06 21:49 | 52.74127 | -114.29240 | 7983 ft | 212 kts | 193° |
| 2026-05-06 21:49 | 52.72668 | -114.29619 | 7972 ft | 211 kts | 194° |
| 2026-05-06 21:49 | 52.71218 | -114.29999 | 7969 ft | 211 kts | 193° |
| 2026-05-06 21:49 | 52.69770 | -114.30373 | 7968 ft | 210 kts | 193° |
| 2026-05-06 21:50 | 52.68321 | -114.30748 | 7979 ft | 211 kts | 194° |
| 2026-05-06 21:50 | 52.66869 | -114.31131 | 7978 ft | 211 kts | 193° |
| 2026-05-06 21:50 | 52.65422 | -114.31515 | 7980 ft | 211 kts | 194° |
| 2026-05-06 21:50 | 52.63967 | -114.31876 | 7975 ft | 211 kts | 193° |
| 2026-05-06 21:51 | 52.62513 | -114.32255 | 7974 ft | 212 kts | 194° |
| 2026-05-06 21:51 | 52.61056 | -114.32634 | 7963 ft | 212 kts | 193° |
| 2026-05-06 21:51 | 52.59597 | -114.33013 | 7963 ft | 213 kts | 193° |
| 2026-05-06 21:51 | 52.58113 | -114.33397 | 7971 ft | 213 kts | 193° |
| 2026-05-06 21:52 | 52.56652 | -114.33773 | 7960 ft | 212 kts | 193° |
| 2026-05-06 21:52 | 52.55210 | -114.34147 | 7976 ft | 211 kts | 194° |
| 2026-05-06 21:52 | 52.53767 | -114.34522 | 7961 ft | 209 kts | 193° |
| 2026-05-06 21:52 | 52.52308 | -114.34889 | 7976 ft | 209 kts | 193° |
| 2026-05-06 21:53 | 52.50883 | -114.35254 | 7973 ft | 211 kts | 193° |
| 2026-05-06 21:53 | 52.49433 | -114.35641 | 7956 ft | 210 kts | 193° |
| 2026-05-06 21:53 | 52.47973 | -114.36014 | 7965 ft | 215 kts | 193° |
| 2026-05-06 21:53 | 52.46505 | -114.36390 | 7963 ft | 212 kts | 193° |
| 2026-05-06 21:54 | 52.45034 | -114.36768 | 7972 ft | 216 kts | 193° |
| 2026-05-06 21:54 | 52.44034 | -114.37023 | 7954 ft | 214 kts | 193° |
| 2026-05-06 21:54 | 52.42091 | -114.37530 | 7947 ft | 215 kts | 193° |
| 2026-05-06 21:54 | 52.40621 | -114.37906 | 7957 ft | 213 kts | 192° |
| 2026-05-06 21:55 | 52.39633 | -114.38147 | 7970 ft | 212 kts | 193° |
| 2026-05-06 21:55 | 52.38163 | -114.38534 | 7956 ft | 214 kts | 192° |
| 2026-05-06 21:55 | 52.36697 | -114.38904 | 7972 ft | 213 kts | 193° |
| 2026-05-06 21:55 | 52.35239 | -114.39277 | 7965 ft | 212 kts | 193° |
| 2026-05-06 21:56 | 52.33773 | -114.39657 | 7965 ft | 214 kts | 193° |
| 2026-05-06 21:56 | 52.32296 | -114.40024 | 7952 ft | 213 kts | 193° |
| 2026-05-06 21:56 | 52.30858 | -114.40405 | 7959 ft | 213 kts | 193° |
| 2026-05-06 21:56 | 52.29390 | -114.40776 | 7952 ft | 214 kts | 193° |
| 2026-05-06 21:57 | 52.27929 | -114.41149 | 7956 ft | 212 kts | 193° |
| 2026-05-06 21:57 | 52.26475 | -114.41512 | 7962 ft | 211 kts | 192° |
| 2026-05-06 21:57 | 52.25019 | -114.41889 | 7953 ft | 212 kts | 193° |
| 2026-05-06 21:57 | 52.23572 | -114.42255 | 7968 ft | 210 kts | 192° |
| 2026-05-06 21:58 | 52.22127 | -114.42627 | 7958 ft | 210 kts | 192° |
| 2026-05-06 21:58 | 52.20683 | -114.42985 | 7952 ft | 210 kts | 192° |
| 2026-05-06 21:58 | 52.19240 | -114.43360 | 7961 ft | 211 kts | 193° |
| 2026-05-06 21:58 | 52.17803 | -114.43729 | 7960 ft | 208 kts | 192° |
| 2026-05-06 21:59 | 52.16373 | -114.44082 | 7956 ft | 207 kts | 193° |
| 2026-05-06 21:59 | 52.14951 | -114.44458 | 7977 ft | 207 kts | 194° |
| 2026-05-06 21:59 | 52.13521 | -114.44805 | 7976 ft | 208 kts | 191° |
| 2026-05-06 21:59 | 52.12071 | -114.44985 | 7972 ft | 212 kts | 185° |
| 2026-05-06 22:00 | 52.10598 | -114.45038 | 7955 ft | 210 kts | 185° |
| 2026-05-06 22:00 | 52.09188 | -114.45122 | 7956 ft | 197 kts | 186° |
| 2026-05-06 22:00 | 52.07841 | -114.45221 | 7960 ft | 190 kts | 186° |
| 2026-05-06 22:00 | 52.06527 | -114.45324 | 7956 ft | 188 kts | 186° |
| 2026-05-06 22:01 | 52.05236 | -114.45418 | 7959 ft | 184 kts | 185° |
| 2026-05-06 22:01 | 52.03945 | -114.45514 | 7972 ft | 190 kts | 186° |
| 2026-05-06 22:01 | 52.02585 | -114.45613 | 7972 ft | 199 kts | 185° |
| 2026-05-06 22:01 | 52.01187 | -114.45714 | 7975 ft | 204 kts | 186° |
| 2026-05-06 22:02 | 51.99777 | -114.45820 | 7980 ft | 204 kts | 185° |
| 2026-05-06 22:02 | 51.98346 | -114.45917 | 7973 ft | 207 kts | 185° |
| 2026-05-06 22:02 | 51.96913 | -114.46024 | 7974 ft | 205 kts | 186° |
| 2026-05-06 22:02 | 51.95483 | -114.46127 | 7981 ft | 206 kts | 186° |
| 2026-05-06 22:03 | 51.94042 | -114.46228 | 7971 ft | 207 kts | 186° |
| 2026-05-06 22:03 | 51.92604 | -114.46342 | 7978 ft | 208 kts | 185° |
| 2026-05-06 22:03 | 51.91152 | -114.46435 | 7975 ft | 208 kts | 185° |
| 2026-05-06 22:03 | 51.89713 | -114.46545 | 7977 ft | 206 kts | 186° |
| 2026-05-06 22:04 | 51.88286 | -114.46629 | 7971 ft | 203 kts | 186° |
| 2026-05-06 22:04 | 51.86890 | -114.46765 | 7968 ft | 202 kts | 186° |
| 2026-05-06 22:04 | 51.85456 | -114.46859 | 7976 ft | 205 kts | 185° |
| 2026-05-06 22:04 | 51.84051 | -114.46949 | 7975 ft | 204 kts | 186° |
| 2026-05-06 22:05 | 51.82625 | -114.47057 | 7986 ft | 208 kts | 186° |
| 2026-05-06 22:05 | 51.81182 | -114.47162 | 7984 ft | 207 kts | 185° |
| 2026-05-06 22:05 | 51.79775 | -114.47265 | 7986 ft | 202 kts | 185° |
| 2026-05-06 22:05 | 51.78358 | -114.47363 | 7988 ft | 205 kts | 185° |
| 2026-05-06 22:06 | 51.76964 | -114.47456 | 7987 ft | 200 kts | 186° |
| 2026-05-06 22:06 | 51.75562 | -114.47566 | 7997 ft | 202 kts | 186° |
| 2026-05-06 22:06 | 51.74149 | -114.47664 | 7998 ft | 203 kts | 186° |
| 2026-05-06 22:06 | 51.72731 | -114.47770 | 7994 ft | 204 kts | 186° |
| 2026-05-06 22:07 | 51.71307 | -114.47874 | 7995 ft | 204 kts | 186° |
| 2026-05-06 22:07 | 51.69888 | -114.47972 | 8011 ft | 204 kts | 186° |
| 2026-05-06 22:07 | 51.68453 | -114.48073 | 7993 ft | 208 kts | 185° |
| 2026-05-06 22:07 | 51.67019 | -114.48178 | 7993 ft | 205 kts | 186° |
| 2026-05-06 22:08 | 51.65596 | -114.48284 | 8003 ft | 206 kts | 186° |
| 2026-05-06 22:08 | 51.64170 | -114.48372 | 7997 ft | 203 kts | 185° |
| 2026-05-06 22:08 | 51.62799 | -114.48483 | 7994 ft | 192 kts | 186° |
| 2026-05-06 22:08 | 51.61483 | -114.48574 | 7994 ft | 187 kts | 186° |
| 2026-05-06 22:09 | 51.60198 | -114.48665 | 7996 ft | 183 kts | 185° |
| 2026-05-06 22:09 | 51.58954 | -114.48751 | 8000 ft | 180 kts | 185° |
| 2026-05-06 22:09 | 51.57694 | -114.48845 | 7996 ft | 178 kts | 185° |
| 2026-05-06 22:09 | 51.56464 | -114.48924 | 7994 ft | 179 kts | 186° |
| 2026-05-06 22:10 | 51.55223 | -114.49018 | 7997 ft | 179 kts | 184° |
| 2026-05-06 22:10 | 51.53965 | -114.49116 | 8016 ft | 188 kts | 185° |
| 2026-05-06 22:10 | 51.52620 | -114.49213 | 8009 ft | 198 kts | 185° |
| 2026-05-06 22:10 | 51.51211 | -114.49313 | 8020 ft | 202 kts | 186° |
| 2026-05-06 22:11 | 51.49818 | -114.49396 | 8007 ft | 204 kts | 183° |
| 2026-05-06 22:11 | 51.48406 | -114.49484 | 8007 ft | 202 kts | 186° |
| 2026-05-06 22:11 | 51.46998 | -114.49617 | 8002 ft | 203 kts | 185° |
| 2026-05-06 22:11 | 51.45592 | -114.49714 | 8024 ft | 203 kts | 184° |
| 2026-05-06 22:12 | 51.44173 | -114.49798 | 8020 ft | 205 kts | 186° |
| 2026-05-06 22:12 | 51.42742 | -114.49919 | 7996 ft | 206 kts | 185° |
| 2026-05-06 22:12 | 51.41297 | -114.50008 | 8019 ft | 205 kts | 185° |
| 2026-05-06 22:12 | 51.39874 | -114.50111 | 8009 ft | 204 kts | 185° |
| 2026-05-06 22:13 | 51.38443 | -114.50207 | 7953 ft | 208 kts | 185° |
| 2026-05-06 22:13 | 51.36982 | -114.50316 | 7836 ft | 211 kts | 183° |
| 2026-05-06 22:13 | 51.35504 | -114.50421 | 7694 ft | 213 kts | 185° |
| 2026-05-06 22:13 | 51.34030 | -114.50521 | 7564 ft | 211 kts | 184° |
| 2026-05-06 22:14 | 51.32547 | -114.50631 | 7377 ft | 214 kts | 184° |
| 2026-05-06 22:14 | 51.31055 | -114.50746 | 7237 ft | 214 kts | 184° |
| 2026-05-06 22:14 | 51.29566 | -114.50837 | 7104 ft | 213 kts | 182° |
| 2026-05-06 22:14 | 51.28092 | -114.50937 | 7005 ft | 208 kts | 183° |
| 2026-05-06 22:15 | 51.26660 | -114.51044 | 7006 ft | 206 kts | 183° |
| 2026-05-06 22:15 | 51.25236 | -114.51142 | 6990 ft | 204 kts | 183° |
| 2026-05-06 22:15 | 51.23836 | -114.51251 | 7005 ft | 204 kts | 183° |
| 2026-05-06 22:15 | 51.22412 | -114.51328 | 6992 ft | 205 kts | 182° |
| 2026-05-06 22:16 | 51.20992 | -114.51441 | 6985 ft | 203 kts | 184° |
| 2026-05-06 22:16 | 51.19560 | -114.51550 | 6994 ft | 204 kts | 182° |
| 2026-05-06 22:16 | 51.18152 | -114.51641 | 6994 ft | 202 kts | 183° |
| 2026-05-06 22:16 | 51.16743 | -114.51741 | 6807 ft | 208 kts | 183° |
| 2026-05-06 22:17 | 51.15273 | -114.51840 | 6604 ft | 213 kts | 182° |
| 2026-05-06 22:17 | 51.13798 | -114.51947 | 6421 ft | 212 kts | 182° |
| 2026-05-06 22:17 | 51.12322 | -114.52060 | 6230 ft | 212 kts | 182° |
| 2026-05-06 22:17 | 51.10848 | -114.52134 | 6019 ft | 212 kts | 178° |
| 2026-05-06 22:18 | 51.09400 | -114.51834 | 5793 ft | 206 kts | 169° |
| 2026-05-06 22:18 | 51.08043 | -114.51445 | 5537 ft | 187 kts | 169° |
| 2026-05-06 22:18 | 51.06846 | -114.50956 | 5279 ft | 167 kts | 149° |
| 2026-05-06 22:18 | 51.05985 | -114.49682 | 5029 ft | 177 kts | 129° |
| 2026-05-06 22:19 | 51.05169 | -114.48134 | 4880 ft | 188 kts | 128° |
| 2026-05-06 22:19 | 51.04431 | -114.46446 | 5018 ft | 182 kts | 112° |
| 2026-05-06 22:19 | 51.04101 | -114.44527 | 5242 ft | 172 kts | 100° |
| 2026-05-06 22:19 | 51.03873 | -114.42712 | 5355 ft | 167 kts | 101° |
| 2026-05-06 22:20 | 51.03704 | -114.40925 | 5319 ft | 167 kts | 95° |
| 2026-05-06 22:20 | 51.03556 | -114.39045 | 5204 ft | 169 kts | 95° |
| 2026-05-06 22:20 | 51.03850 | -114.37533 | 4952 ft | 134 kts | 39° |
| 2026-05-06 22:20 | 51.04671 | -114.37121 | 4554 ft | 130 kts | 351° |
| 2026-05-06 22:21 | 51.05639 | -114.37547 | 4533 ft | 153 kts | 347° |
| 2026-05-06 22:21 | 51.06727 | -114.37926 | 4489 ft | 157 kts | 0° |
| 2026-05-06 22:21 | 51.07670 | -114.37928 | 4309 ft | 122 kts | 9° |
| 2026-05-06 22:21 | 51.08466 | -114.37919 | 4175 ft | 104 kts | 10° |
| 2026-05-06 22:22 | 51.09106 | -114.37886 | 4066 ft | 93 kts | 8° |
| 2026-05-06 22:22 | 51.09769 | -114.37879 | 3976 ft | 94 kts | 8° |
| 2026-05-06 22:22 | 51.10308 | -114.37876 | 3941 ft | 59 kts | 355° |
| 2026-05-06 22:22 | 51.10564 | -114.37870 | 3939 ft | 21 kts | 343° |
| 2026-05-06 22:23 | 51.10642 | -114.37859 | 3938 ft | 5 kts | 25° |
| 2026-05-06 22:23 | 51.10658 | -114.37835 | 3938 ft | 2 kts | 63° |
| 2026-05-06 22:23 | 51.10663 | -114.37771 | 3938 ft | 9 kts | 88° |
| 2026-05-06 22:23 | 51.10662 | -114.37703 | 3938 ft | 5 kts | 90° |
| 2026-05-06 22:24 | 51.10626 | -114.37598 | 3938 ft | 13 kts | 162° |
| 2026-05-06 22:24 | 51.10520 | -114.37595 | 3939 ft | 27 kts | 180° |
| 2026-05-06 22:24 | 51.10360 | -114.37584 | 3939 ft | 19 kts | 182° |
| 2026-05-06 22:24 | 51.10288 | -114.37525 | 3939 ft | 6 kts | 174° |